createdAt,value
2023-11-23T00:04:42.168Z,101642.66
2023-11-23T00:07:54.397Z,101632.31
2023-11-23T00:11:06.409Z,101618.94
2023-11-23T00:14:18.258Z,101597.63
2023-11-23T00:17:31.927Z,101596.72
2023-11-23T00:20:26.678Z,101589.59
2023-11-23T00:23:29.390Z,101591.16
2023-11-23T00:26:35.344Z,101578.31
2023-11-23T00:29:30.550Z,101572.19
2023-11-23T00:32:42.391Z,101579.50
2023-11-23T00:35:45.499Z,101575.47
2023-11-23T00:38:57.217Z,101578.09
2023-11-23T00:41:54.682Z,101567.44
2023-11-23T00:44:49.108Z,101558.25
2023-11-23T00:47:21.222Z,101543.31
2023-11-23T00:49:52.678Z,101538.84
2023-11-23T00:52:26.727Z,101539.97
2023-11-23T00:55:30.030Z,101544.81
2023-11-23T00:58:42.021Z,101546.69
2023-11-23T01:01:55.757Z,101544.94
2023-11-23T01:04:51.111Z,101512.06
2023-11-23T01:07:22.375Z,101519.97
2023-11-23T01:10:18.421Z,101527.88
2023-11-23T01:13:14.489Z,101502.13
2023-11-23T01:16:28.073Z,101514.88
2023-11-23T01:19:21.902Z,101512.16
2023-11-23T01:22:33.671Z,101506.88
2023-11-23T01:25:48.819Z,101516.56
2023-11-23T01:28:53.360Z,101519.09
2023-11-23T01:32:05.393Z,101506.03
2023-11-23T01:35:11.929Z,101509.91
2023-11-23T01:38:24.343Z,101508.66
2023-11-23T01:41:30.261Z,101503.41
2023-11-23T01:47:17.879Z,101489.44
2023-11-23T01:50:15.146Z,101496.25
2023-11-23T01:53:17.576Z,101490.19
2023-11-23T01:56:12.799Z,101476.06
2023-11-23T01:58:44.971Z,101443.97
2023-11-23T02:01:57.279Z,101462.72
2023-11-23T02:05:14.564Z,101450.06
2023-11-23T02:08:25.432Z,101451.03
2023-11-23T02:11:37.541Z,101441.72
2023-11-23T02:14:21.500Z,101439.84
2023-11-23T02:17:35.996Z,101421.06
2023-11-23T02:20:50.951Z,101429.22
2023-11-23T02:24:03.226Z,101431.84
2023-11-23T02:26:58.975Z,101416.66
2023-11-23T02:29:53.733Z,101413.19
2023-11-23T02:32:54.782Z,101406.94
2023-11-23T02:35:29.352Z,101422.72
2023-11-23T02:38:53.810Z,101409.63
2023-11-23T02:41:57.990Z,101415.13
2023-11-23T02:44:52.882Z,101389.88
2023-11-23T02:47:58.614Z,101403.44
2023-11-23T02:51:00.508Z,101394.31
2023-11-23T02:53:34.237Z,101383.72
2023-11-23T02:56:46.848Z,101388.31
2023-11-23T03:02:30.832Z,101368.47
2023-11-23T03:05:35.553Z,101388.31
2023-11-23T03:08:27.204Z,101377.16
2023-11-23T03:11:23.057Z,101379.88
2023-11-23T03:14:17.624Z,101338.50
2023-11-23T03:17:12.401Z,101351.19
2023-11-23T03:20:27.159Z,101364.03
2023-11-23T03:23:38.857Z,101349.25
2023-11-23T03:26:31.942Z,101340.91
2023-11-23T03:29:32.616Z,101343.41
2023-11-23T03:32:26.839Z,101353.28
2023-11-23T03:35:13.551Z,101340.84
2023-11-23T03:38:28.193Z,101355.03
2023-11-23T03:41:40.055Z,101336.34
2023-11-23T03:44:33.265Z,101351.88
2023-11-23T03:47:29.809Z,101365.72
2023-11-23T03:50:40.426Z,101353.56
2023-11-23T03:53:30.552Z,101348.81
2023-11-23T03:56:42.371Z,101350.28
2023-11-23T03:59:33.989Z,101338.97
2023-11-23T04:02:45.797Z,101341.63
2023-11-23T04:05:41.282Z,101341.53
2023-11-23T04:08:55.865Z,101343.94
2023-11-23T04:12:00.320Z,101335.97
2023-11-23T04:14:57.731Z,101329.88
2023-11-23T04:17:51.930Z,101323.63
2023-11-23T04:21:03.974Z,101333.09
2023-11-23T04:23:48.621Z,101311.28
2023-11-23T04:26:54.407Z,101290.97
2023-11-23T04:29:49.537Z,101284.78
2023-11-23T04:33:02.817Z,101292.31
2023-11-23T04:35:47.329Z,101275.63
2023-11-23T04:38:57.833Z,101290.66
2023-11-23T04:42:03.922Z,101292.81
2023-11-23T04:45:15.866Z,101279.38
2023-11-23T04:48:27.856Z,101266.75
2023-11-23T04:51:11.611Z,101270.59
2023-11-23T04:54:23.495Z,101245.25
2023-11-23T04:57:12.976Z,101251.78
2023-11-23T05:00:26.462Z,101259.56
2023-11-23T05:03:32.968Z,101250.28
2023-11-23T05:06:08.671Z,101266.75
2023-11-23T05:09:20.490Z,101278.88
2023-11-23T05:14:59.118Z,101279.13
2023-11-23T05:17:53.098Z,101269.53
2023-11-23T05:21:05.920Z,101261.69
2023-11-23T05:24:03.737Z,101279.03
2023-11-23T05:27:16.650Z,101250.50
2023-11-23T05:30:34.043Z,101285.28
2023-11-23T05:33:48.494Z,101263.63
2023-11-23T05:37:00.313Z,101243.38
2023-11-23T05:42:57.565Z,101250.25
2023-11-23T05:46:15.462Z,101254.91
2023-11-23T05:49:07.866Z,101231.97
2023-11-23T05:51:59.709Z,101237.03
2023-11-23T05:55:12.824Z,101208.72
2023-11-23T05:58:27.420Z,101217.72
2023-11-23T06:01:39.141Z,101230.09
2023-11-23T06:04:31.106Z,101209.19
2023-11-23T06:07:43.462Z,101217.00
2023-11-23T06:10:35.515Z,101218.72
2023-11-23T06:13:50.369Z,101215.56
2023-11-23T06:17:02.438Z,101204.69
2023-11-23T06:20:03.138Z,101225.41
2023-11-23T06:23:15.013Z,101216.09
2023-11-23T06:26:33.273Z,101204.19
2023-11-23T06:29:46.205Z,101205.84
2023-11-23T06:32:50.482Z,101199.44
2023-11-23T06:35:34.762Z,101204.75
2023-11-23T06:38:22.835Z,101226.84
2023-11-23T06:41:34.672Z,101199.19
2023-11-23T06:44:17.035Z,101195.78
2023-11-23T06:47:11.542Z,101196.56
2023-11-23T06:50:23.426Z,101187.97
2023-11-23T06:53:36.730Z,101182.28
2023-11-23T06:56:14.399Z,101192.28
2023-11-23T06:58:48.183Z,101188.47
2023-11-23T07:02:00.267Z,101166.22
2023-11-23T07:05:15.486Z,101166.78
2023-11-23T07:08:10.761Z,101145.91
2023-11-23T07:11:14.503Z,101152.25
2023-11-23T07:14:26.207Z,101158.16
2023-11-23T07:20:16.452Z,101159.28
2023-11-23T07:23:28.949Z,101152.31
2023-11-23T07:26:40.909Z,101145.28
2023-11-23T07:29:52.735Z,101131.75
2023-11-23T07:33:04.668Z,101139.38
2023-11-23T07:38:50.950Z,101129.88
2023-11-23T07:41:45.437Z,101117.00
2023-11-23T07:44:57.357Z,101114.09
2023-11-23T07:47:49.120Z,101113.47
2023-11-23T07:51:01.600Z,101115.34
2023-11-23T07:54:00.921Z,101113.84
2023-11-23T07:57:12.865Z,101095.91
2023-11-23T08:00:29.791Z,101085.81
2023-11-23T08:03:31.817Z,101090.97
2023-11-23T08:06:43.929Z,101085.28
2023-11-23T08:09:40.885Z,101079.09
2023-11-23T08:12:15.173Z,101059.53
2023-11-23T08:15:03.790Z,101083.59
2023-11-23T08:18:15.778Z,101068.84
2023-11-23T08:21:26.762Z,101090.34
2023-11-23T08:24:28.344Z,101051.66
2023-11-23T08:27:39.397Z,101046.41
2023-11-23T08:30:41.587Z,101058.34
2023-11-23T08:33:53.612Z,101049.69
2023-11-23T08:36:48.794Z,101062.19
2023-11-23T08:39:21.951Z,101052.66
2023-11-23T08:41:54.213Z,101040.72
2023-11-23T08:45:10.881Z,101038.31
2023-11-23T08:48:23.970Z,101043.91
2023-11-23T08:51:25.637Z,101043.81
2023-11-23T08:54:37.790Z,101028.44
2023-11-23T08:57:52.558Z,101019.81
2023-11-23T09:01:07.237Z,101019.69
2023-11-23T09:04:10.376Z,101005.13
2023-11-23T09:06:44.263Z,101004.34
2023-11-23T09:09:38.857Z,100996.63
2023-11-23T09:12:50.538Z,100992.72
2023-11-23T09:16:02.550Z,101006.91
2023-11-23T09:19:18.332Z,101000.94
2023-11-23T09:22:30.381Z,100981.72
2023-11-23T09:25:42.159Z,100983.03
2023-11-23T09:28:14.351Z,100971.78
2023-11-23T09:30:45.709Z,100963.19
2023-11-23T09:33:20.775Z,100968.19
2023-11-23T09:36:16.232Z,100946.34
2023-11-23T09:38:53.327Z,100965.50
2023-11-23T09:41:26.735Z,100964.41
2023-11-23T09:44:21.185Z,100950.47
2023-11-23T09:47:22.277Z,100917.00
2023-11-23T09:50:24.184Z,100917.47
2023-11-23T09:56:13.049Z,100925.88
2023-11-23T09:59:25.278Z,100910.38
2023-11-23T10:02:39.035Z,100911.63
2023-11-23T10:05:21.569Z,100908.19
2023-11-23T10:08:34.747Z,100889.25
2023-11-23T10:11:42.483Z,100931.72
2023-11-23T10:14:57.390Z,100903.34
2023-11-23T10:17:49.435Z,100889.25
2023-11-23T10:20:41.484Z,100866.19
2023-11-23T10:23:53.395Z,100867.78
2023-11-23T10:27:00.185Z,100847.31
2023-11-23T10:30:13.707Z,100831.94
2023-11-23T10:33:13.493Z,100823.56
2023-11-23T10:36:29.062Z,100791.78
2023-11-23T10:39:41.887Z,100801.84
2023-11-23T10:42:57.246Z,100831.25
2023-11-23T10:46:13.385Z,100794.19
2023-11-23T10:49:06.245Z,100787.81
2023-11-23T10:52:21.944Z,100774.28
2023-11-23T10:55:26.066Z,100790.44
2023-11-23T10:58:24.518Z,100782.47
2023-11-23T11:01:38.480Z,100768.34
2023-11-23T11:04:21.876Z,100770.91
2023-11-23T11:07:01.345Z,100751.94
2023-11-23T11:10:14.112Z,100757.53
2023-11-23T11:13:15.628Z,100758.56
2023-11-23T11:16:05.122Z,100747.09
2023-11-23T11:18:58.321Z,100750.84
2023-11-23T11:21:52.440Z,100732.41
2023-11-23T11:24:47.424Z,100734.72
2023-11-23T11:27:59.376Z,100724.19
2023-11-23T11:31:15.466Z,100738.72
2023-11-23T11:34:28.505Z,100717.22
2023-11-23T11:37:44.677Z,100739.13
2023-11-23T11:40:39.137Z,100720.31
2023-11-23T11:43:40.943Z,100760.69
2023-11-23T11:46:55.514Z,100721.69
2023-11-23T11:49:54.705Z,100721.53
2023-11-23T11:52:54.191Z,100720.13
2023-11-23T11:55:37.799Z,100710.44
2023-11-23T11:58:09.459Z,100704.94
2023-11-23T12:01:01.181Z,100669.34
2023-11-23T12:03:43.098Z,100696.94
2023-11-23T12:06:46.520Z,100699.97
2023-11-23T12:09:46.268Z,100665.75
2023-11-23T12:12:59.144Z,100710.00
2023-11-23T12:15:58.182Z,100693.94
2023-11-23T12:18:56.250Z,100719.75
2023-11-23T12:21:32.391Z,100754.44
2023-11-23T12:24:12.742Z,100672.31
2023-11-23T12:27:10.461Z,100713.13
2023-11-23T12:29:55.711Z,100656.91
2023-11-23T12:32:39.290Z,100671.53
2023-11-23T12:35:14.627Z,100642.72
2023-11-23T12:38:15.943Z,100634.69
2023-11-23T12:40:48.051Z,100604.63
2023-11-23T12:43:19.675Z,100607.06
2023-11-23T12:45:51.382Z,100605.81
2023-11-23T12:48:23.022Z,100606.22
2023-11-23T12:51:37.720Z,100631.41
2023-11-23T12:54:21.481Z,100611.44
2023-11-23T12:57:13.877Z,100609.13
2023-11-23T13:00:07.663Z,100604.38
2023-11-23T13:02:54.087Z,100584.97
2023-11-23T13:05:28.060Z,100595.59
2023-11-23T13:08:14.028Z,100592.44
2023-11-23T13:10:59.324Z,100618.25
2023-11-23T13:13:36.608Z,100591.25
2023-11-23T13:16:19.057Z,100583.41
2023-11-23T13:19:30.205Z,100612.09
2023-11-23T13:22:09.237Z,100591.63
2023-11-23T13:25:18.313Z,100563.16
2023-11-23T13:28:11.930Z,100555.81
2023-11-23T13:30:44.628Z,100569.00
2023-11-23T13:33:40.655Z,100555.34
2023-11-23T13:36:29.735Z,100540.84
2023-11-23T13:39:23.248Z,100545.94
2023-11-23T13:42:38.525Z,100534.72
2023-11-23T13:45:51.246Z,100541.16
2023-11-23T13:49:04.585Z,100502.91
2023-11-23T13:52:14.952Z,100510.16
2023-11-23T13:58:01.066Z,100524.09
2023-11-23T14:01:15.682Z,100485.41
2023-11-23T14:04:27.941Z,100479.56
2023-11-23T14:07:40.896Z,100473.56
2023-11-23T14:10:46.293Z,100444.72
2023-11-23T14:14:01.972Z,100480.16
2023-11-23T14:17:15.250Z,100486.16
2023-11-23T14:20:27.848Z,100480.22
2023-11-23T14:23:19.779Z,100471.56
2023-11-23T14:26:16.441Z,100461.19
2023-11-23T14:28:49.172Z,100464.13
2023-11-23T14:31:56.847Z,100436.22
2023-11-23T14:34:48.473Z,100426.09
2023-11-23T14:37:22.578Z,100419.56
2023-11-23T14:40:29.542Z,100423.00
2023-11-23T14:43:41.731Z,100421.94
2023-11-23T14:46:56.492Z,100418.78
2023-11-23T14:50:10.332Z,100392.03
2023-11-23T14:52:48.941Z,100400.91
2023-11-23T14:55:47.049Z,100402.13
2023-11-23T14:58:59.592Z,100367.88
2023-11-23T15:01:43.765Z,100363.72
2023-11-23T15:04:59.648Z,100361.41
2023-11-23T15:07:59.542Z,100363.25
2023-11-23T15:11:11.855Z,100324.22
2023-11-23T15:14:29.687Z,100360.47
2023-11-23T15:17:22.074Z,100309.94
2023-11-23T15:20:28.190Z,100322.38
2023-11-23T15:23:24.016Z,100329.44
2023-11-23T15:25:55.847Z,100317.50
2023-11-23T15:28:47.569Z,100317.59
2023-11-23T15:31:33.277Z,100262.72
2023-11-23T15:34:46.039Z,100264.06
2023-11-23T15:37:44.003Z,100261.75
2023-11-23T15:40:56.556Z,100249.72
2023-11-23T15:43:37.453Z,100243.25
2023-11-23T15:46:50.651Z,100246.00
2023-11-23T15:49:51.549Z,100233.09
2023-11-23T15:52:55.328Z,100211.31
2023-11-23T15:56:07.310Z,100214.41
2023-11-23T15:59:00.573Z,100218.56
2023-11-23T16:02:17.098Z,100209.78
2023-11-23T16:04:58.409Z,100218.53
2023-11-23T16:08:14.260Z,100187.13
2023-11-23T16:11:06.125Z,100183.75
2023-11-23T16:14:18.651Z,100172.56
2023-11-23T16:16:58.031Z,100206.31
2023-11-23T16:20:12.767Z,100176.13
2023-11-23T16:23:28.192Z,100173.38
2023-11-23T16:26:29.449Z,100152.97
2023-11-23T16:29:41.408Z,100166.53
2023-11-23T16:32:46.994Z,100159.31
2023-11-23T16:35:39.020Z,100126.50
2023-11-23T16:38:36.140Z,100151.44
2023-11-23T16:41:48.151Z,100152.69
2023-11-23T16:44:19.956Z,100140.66
2023-11-23T16:47:21.662Z,100109.59
2023-11-23T16:50:33.745Z,100096.31
2023-11-23T16:53:48.920Z,100098.41
2023-11-23T16:56:52.561Z,100093.19
2023-11-23T16:59:28.194Z,100106.63
2023-11-23T17:02:00.116Z,100082.72
2023-11-23T17:05:15.790Z,100098.25
2023-11-23T17:08:01.499Z,100081.25
2023-11-23T17:10:36.286Z,100084.38
2023-11-23T17:13:10.777Z,100068.91
2023-11-23T17:16:21.571Z,100055.81
2023-11-23T17:18:53.051Z,100034.44
2023-11-23T17:21:49.019Z,100059.69
2023-11-23T17:24:32.627Z,100056.97
2023-11-23T17:27:07.509Z,100036.09
2023-11-23T17:30:02.178Z,100032.72
2023-11-23T17:32:54.379Z,100026.69
2023-11-23T17:36:06.924Z,100013.75
2023-11-23T17:39:17.281Z,100013.28
2023-11-23T17:42:32.288Z,99994.69
2023-11-23T17:45:48.981Z,100012.78
2023-11-23T17:48:46.382Z,100006.41
2023-11-23T17:51:58.561Z,99987.56
2023-11-23T17:55:12.335Z,99980.16
2023-11-23T17:58:11.345Z,99997.44
2023-11-23T18:01:14.513Z,99957.75
2023-11-23T18:04:16.975Z,99982.63
2023-11-23T18:07:09.083Z,99942.66
2023-11-23T18:10:21.812Z,99986.03
2023-11-23T18:13:13.337Z,99953.94
2023-11-23T18:15:50.014Z,99950.31
2023-11-23T18:19:02.978Z,99957.75
2023-11-23T18:22:15.791Z,99937.19
2023-11-23T18:25:26.437Z,99962.94
2023-11-23T18:28:41.033Z,99951.25
2023-11-23T18:31:53.998Z,99915.31
2023-11-23T18:34:26.343Z,99939.25
2023-11-23T18:37:39.209Z,99951.97
2023-11-23T18:40:18.414Z,99917.25
2023-11-23T18:42:54.919Z,99919.94
2023-11-23T18:45:53.624Z,99947.63
2023-11-23T18:49:06.456Z,99865.69
2023-11-23T18:52:05.835Z,99931.03
2023-11-23T18:54:57.487Z,99902.66
2023-11-23T18:57:42.864Z,99921.94
2023-11-23T19:00:16.445Z,99910.97
2023-11-23T19:03:20.276Z,99897.44
2023-11-23T19:06:15.309Z,99919.59
2023-11-23T19:08:48.925Z,99890.69
2023-11-23T19:11:24.234Z,99906.63
2023-11-23T19:14:38.872Z,99869.72
2023-11-23T19:18:00.478Z,99912.84
2023-11-23T19:21:10.496Z,99875.72
2023-11-23T19:24:25.009Z,99887.06
2023-11-23T19:27:34.003Z,99878.78
2023-11-23T19:30:48.048Z,99884.75
2023-11-23T19:33:33.281Z,99871.94
2023-11-23T19:36:42.937Z,99890.81
2023-11-23T19:39:32.001Z,99925.78
2023-11-23T19:42:11.346Z,99961.22
2023-11-23T19:45:10.375Z,99971.28
2023-11-23T19:47:48.385Z,99980.34
2023-11-23T19:50:26.495Z,99956.38
2023-11-23T19:53:05.687Z,99966.50
2023-11-23T19:55:57.470Z,99968.66
2023-11-23T19:58:31.899Z,99954.59
2023-11-23T20:01:20.440Z,99956.72
2023-11-23T20:03:55.451Z,99952.72
2023-11-23T20:06:32.683Z,99957.53
2023-11-23T20:09:26.040Z,99968.72
2023-11-23T20:12:00.678Z,99971.41
2023-11-23T20:14:35.954Z,99973.25
2023-11-23T20:17:11.801Z,99966.31
2023-11-23T20:19:45.073Z,99965.16
2023-11-23T20:22:23.259Z,99980.47
2023-11-23T20:25:05.405Z,99972.38
2023-11-23T20:27:41.341Z,99983.50
2023-11-23T20:30:33.175Z,99988.09
2023-11-23T20:33:10.007Z,99978.22
2023-11-23T20:35:52.840Z,99995.41
2023-11-23T20:39:05.023Z,99998.28
2023-11-23T20:42:02.002Z,99992.81
2023-11-23T20:44:58.245Z,99983.47
2023-11-23T20:47:32.500Z,100004.06
2023-11-23T20:50:24.277Z,100004.03
2023-11-23T20:52:58.939Z,99993.59
2023-11-23T20:55:31.816Z,99990.53
2023-11-23T20:58:32.040Z,99978.69
2023-11-23T21:01:08.053Z,99992.56
2023-11-23T21:04:04.448Z,99967.13
2023-11-23T21:07:11.428Z,99964.19
2023-11-23T21:09:45.779Z,99978.78
2023-11-23T21:12:25.022Z,99976.81
2023-11-23T21:15:02.498Z,99983.56
2023-11-23T21:17:38.209Z,99993.72
2023-11-23T21:20:15.250Z,99993.91
2023-11-23T21:22:50.018Z,99985.25
2023-11-23T21:25:21.843Z,99984.31
2023-11-23T21:28:07.386Z,99987.91
2023-11-23T21:31:06.447Z,100002.53
2023-11-23T21:33:41.515Z,99987.34
2023-11-23T21:36:13.405Z,99991.28
2023-11-23T21:38:45.994Z,99982.28
2023-11-23T21:41:26.522Z,99979.84
2023-11-23T21:43:58.478Z,99981.53
2023-11-23T21:46:32.847Z,99947.16
2023-11-23T21:49:04.610Z,99947.47
2023-11-23T21:51:39.787Z,99963.13
2023-11-23T21:54:14.496Z,99954.88
2023-11-23T21:56:46.343Z,99954.13
2023-11-23T21:59:19.092Z,99936.41
2023-11-23T22:01:53.517Z,99942.38
2023-11-23T22:04:34.415Z,99937.97
2023-11-23T22:07:09.163Z,99938.66
2023-11-23T22:09:54.497Z,99933.28
2023-11-23T22:12:37.357Z,99922.97
2023-11-23T22:15:10.881Z,99911.03
2023-11-23T22:17:47.548Z,99923.94
2023-11-23T22:20:24.261Z,99912.28
2023-11-23T22:22:56.793Z,99926.81
2023-11-23T22:25:34.518Z,99921.31
2023-11-23T22:28:11.616Z,99953.72
2023-11-23T22:30:45.339Z,99928.03
2023-11-23T22:33:21.505Z,99933.84
2023-11-23T22:36:34.475Z,99933.28
2023-11-23T22:39:10.687Z,99948.00
2023-11-23T22:41:44.829Z,99954.13
2023-11-23T22:44:37.411Z,99935.19
2023-11-23T22:47:13.501Z,99934.44
2023-11-23T22:49:52.090Z,99944.69
2023-11-23T22:52:23.970Z,99968.28
2023-11-23T22:54:55.621Z,99942.38
2023-11-23T22:57:27.995Z,99949.09
2023-11-23T23:00:02.053Z,99947.00
2023-11-23T23:02:34.662Z,99968.28
2023-11-23T23:05:32.322Z,99947.56
2023-11-23T23:08:04.587Z,99950.09
2023-11-23T23:10:41.581Z,99949.72
2023-11-23T23:13:14.599Z,99935.75
2023-11-23T23:15:46.968Z,99943.16
2023-11-23T23:18:18.990Z,99938.66
2023-11-23T23:20:53.513Z,99950.09
2023-11-23T23:23:28.255Z,99936.91
2023-11-23T23:26:07.195Z,99931.53
2023-11-23T23:28:39.072Z,99933.59
2023-11-23T23:31:10.708Z,99934.19
2023-11-23T23:33:42.475Z,99938.00
2023-11-23T23:36:22.189Z,99937.16
2023-11-23T23:38:56.763Z,99940.34
2023-11-23T23:41:36.155Z,99919.06
2023-11-23T23:44:07.891Z,99915.88
2023-11-23T23:46:39.677Z,99922.53
2023-11-23T23:49:14.551Z,99904.47
2023-11-23T23:51:48.974Z,99935.56
2023-11-23T23:54:23.930Z,99935.28
2023-11-23T23:56:59.171Z,99912.28
2023-11-23T23:59:31.435Z,99908.91
